aviador You're here:

MROC Decoded Metar

SAN JOSE in COSTA RICA
Report Time2018-02-22 08:00:00
UTC Time2018-02-22 08:24:40
Flight Rules vfr VFR
Wind110° at 09 kt
W.Decomp.*RWY 07: 6.9 kt HW 5.8 kt RCW
W.Rank110° ranks 3
Current wind is above 110° avg. (8.6)
Visibility9999 m
Phenomena:N/A
Clouds:N/A
Expected CloudBase > 2,000 ft AGL from Temp-Dew spread
CeilingNone
Temp20°C (ISA +11)
Dew Point15°C (73% RH)
AAT18.4°C
QNH1017 hPa
Density Alt4,400 ft
Elevation3,018 ft
Report Wrong Elevation
Raw Report
MROC 220800Z 11009KT 060V140 CAVOK 20/15 A3002 NOSIG=

Extra information for MROC:More info

Metar Taf Metar & Taf Last 4 Metars F.Rules Stats Wind Profile Meteogram Temp Stats Airport Information Weather charts Add Link Nearby VenuesMetar ALERT Operation Metar Decoded Social comments